createdAt,value
2018-11-27T00:00:58.818Z,19.33
2018-11-27T00:05:01.182Z,20.57
2018-11-27T00:09:04.403Z,19.93
2018-11-27T00:13:06.787Z,17.23
2018-11-27T00:17:09.163Z,20.07
2018-11-27T00:21:11.509Z,20.00
2018-11-27T00:25:14.993Z,20.37
2018-11-27T00:29:17.410Z,19.13
2018-11-27T00:33:19.759Z,19.13
2018-11-27T00:37:22.159Z,20.00
2018-11-27T00:41:24.522Z,19.53
2018-11-27T00:45:26.902Z,20.20
2018-11-27T00:49:29.265Z,18.90
2018-11-27T00:53:31.581Z,18.40
2018-11-27T00:57:34.000Z,21.20
2018-11-27T01:01:36.487Z,17.50
2018-11-27T01:05:38.842Z,20.60
2018-11-27T01:09:41.202Z,20.50
2018-11-27T01:13:43.552Z,20.00
2018-11-27T01:17:47.235Z,19.47
2018-11-27T01:21:50.152Z,20.00
2018-11-27T01:25:52.526Z,20.77
2018-11-27T01:29:54.881Z,17.60
2018-11-27T01:33:57.197Z,20.80
2018-11-27T01:37:59.596Z,19.97
2018-11-27T01:42:01.947Z,22.37
2018-11-27T01:46:04.687Z,22.10
2018-11-27T01:50:09.178Z,20.50
2018-11-27T01:54:11.467Z,20.77
2018-11-27T01:58:13.834Z,20.13
2018-11-27T02:02:16.246Z,19.70
2018-11-27T02:06:18.548Z,22.53
2018-11-27T02:10:20.931Z,19.77
2018-11-27T02:14:23.254Z,21.80
2018-11-27T02:18:25.653Z,21.30
2018-11-27T02:22:28.051Z,23.47
2018-11-27T02:26:30.459Z,21.60
2018-11-27T02:30:33.054Z,22.07
2018-11-27T02:34:35.463Z,21.27
2018-11-27T02:38:37.775Z,21.93
2018-11-27T02:42:40.268Z,21.30
2018-11-27T02:46:42.628Z,21.07
2018-11-27T02:50:44.998Z,21.20
2018-11-27T02:54:47.338Z,22.00
2018-11-27T02:58:49.787Z,23.80
2018-11-27T03:02:52.178Z,20.43
2018-11-27T03:06:54.525Z,22.10
2018-11-27T03:10:56.933Z,20.60
2018-11-27T03:14:59.314Z,22.33
2018-11-27T03:19:01.712Z,22.80
2018-11-27T03:23:04.378Z,21.17
2018-11-27T03:27:06.804Z,21.50
2018-11-27T03:31:09.173Z,21.90
2018-11-27T03:35:13.457Z,22.90
2018-11-27T03:39:15.813Z,23.70
2018-11-27T03:43:18.195Z,24.10
2018-11-27T03:47:20.597Z,25.03
2018-11-27T03:51:23.027Z,22.47
2018-11-27T03:55:25.434Z,24.73
2018-11-27T03:59:27.833Z,23.40
2018-11-27T04:03:30.189Z,23.53
2018-11-27T04:07:33.045Z,23.20
2018-11-27T04:11:35.388Z,24.03
2018-11-27T04:15:37.790Z,22.93
2018-11-27T04:19:40.359Z,22.50
2018-11-27T04:23:42.794Z,25.47
2018-11-27T04:27:45.825Z,24.67
2018-11-27T04:31:48.194Z,24.13
2018-11-27T04:35:50.748Z,26.37
2018-11-27T04:39:53.042Z,22.57
2018-11-27T04:43:55.343Z,26.53
2018-11-27T04:47:57.654Z,29.30
2018-11-27T04:51:59.957Z,27.33
2018-11-27T04:56:02.417Z,25.10
2018-11-27T05:00:08.972Z,24.53
2018-11-27T05:04:11.356Z,26.70
2018-11-27T05:08:13.678Z,27.17
2018-11-27T05:12:16.054Z,24.97
2018-11-27T05:16:18.433Z,23.37
2018-11-27T05:20:20.929Z,22.33
2018-11-27T05:24:23.312Z,24.47
2018-11-27T05:28:25.723Z,25.07
2018-11-27T05:32:28.082Z,24.97
2018-11-27T05:36:30.377Z,23.93
2018-11-27T05:40:32.771Z,23.47
2018-11-27T05:44:35.147Z,21.77
2018-11-27T05:48:37.546Z,24.80
2018-11-27T05:52:39.956Z,25.20
2018-11-27T05:56:42.320Z,23.20
2018-11-27T06:00:44.790Z,22.97
2018-11-27T06:04:47.202Z,22.13
2018-11-27T06:08:49.765Z,20.30
2018-11-27T06:12:52.220Z,21.73
2018-11-27T06:16:54.637Z,23.87
2018-11-27T06:20:57.057Z,19.80
2018-11-27T06:24:59.427Z,24.50
2018-11-27T06:29:01.856Z,22.37
2018-11-27T06:33:04.452Z,20.97
2018-11-27T06:37:06.804Z,20.00
2018-11-27T06:41:09.249Z,26.17
2018-11-27T06:45:13.930Z,23.87
2018-11-27T06:49:16.516Z,23.33
2018-11-27T06:53:18.967Z,22.00
2018-11-27T06:57:21.719Z,21.57
2018-11-27T07:01:23.870Z,21.73
2018-11-27T07:05:26.350Z,19.70
2018-11-27T07:09:28.804Z,19.23
2018-11-27T07:13:31.165Z,20.87
2018-11-27T07:17:33.552Z,19.77
2018-11-27T07:21:35.964Z,21.57
2018-11-27T07:25:38.438Z,21.00
2018-11-27T07:29:40.824Z,20.03
2018-11-27T07:33:43.146Z,18.00
2018-11-27T07:37:45.675Z,22.97
2018-11-27T07:41:48.071Z,19.60
2018-11-27T07:45:55.067Z,21.63
2018-11-27T07:49:52.866Z,20.13
2018-11-27T07:53:55.219Z,21.03
2018-11-27T07:57:57.647Z,23.50
2018-11-27T08:02:00.107Z,23.27
2018-11-27T08:06:02.430Z,20.97
2018-11-27T08:10:08.919Z,18.60
2018-11-27T08:14:11.304Z,20.37
2018-11-27T08:18:13.640Z,20.43
2018-11-27T08:22:15.954Z,20.30
2018-11-27T08:26:18.608Z,20.70
2018-11-27T08:30:21.640Z,22.30
2018-11-27T08:34:24.006Z,20.90
2018-11-27T08:38:26.335Z,22.60
2018-11-27T08:42:28.699Z,19.90
2018-11-27T08:46:31.065Z,21.80
2018-11-27T08:50:33.412Z,19.93
2018-11-27T08:54:35.840Z,22.60
2018-11-27T08:58:38.236Z,22.30
2018-11-27T09:02:40.603Z,24.20
2018-11-27T09:06:43.059Z,22.67
2018-11-27T09:10:45.536Z,24.47
2018-11-27T09:14:47.869Z,23.90
2018-11-27T09:18:50.253Z,23.07
2018-11-27T09:22:52.555Z,21.13
2018-11-27T09:26:54.918Z,23.30
2018-11-27T09:30:57.305Z,20.47
2018-11-27T09:34:59.609Z,20.40
2018-11-27T09:39:02.024Z,22.50
2018-11-27T09:43:04.728Z,21.60
2018-11-27T09:47:07.115Z,23.40
2018-11-27T09:51:09.441Z,21.17
2018-11-27T09:55:16.698Z,19.63
2018-11-27T09:59:19.075Z,21.50
2018-11-27T10:03:21.481Z,22.90
2018-11-27T10:07:23.876Z,22.30
2018-11-27T10:11:26.276Z,22.17
2018-11-27T10:15:28.987Z,19.10
2018-11-27T10:19:31.440Z,21.37
2018-11-27T10:23:33.789Z,22.83
2018-11-27T10:27:36.273Z,21.70
2018-11-27T10:31:38.654Z,22.73
2018-11-27T10:35:43.629Z,19.87
2018-11-27T10:39:46.033Z,20.27
2018-11-27T10:43:48.393Z,21.70
2018-11-27T10:47:51.925Z,19.60
2018-11-27T10:51:54.290Z,19.90
2018-11-27T10:55:56.594Z,20.43
2018-11-27T10:59:58.971Z,23.73
2018-11-27T11:04:01.343Z,20.43
2018-11-27T11:08:03.852Z,20.83
2018-11-27T11:12:06.205Z,21.00
2018-11-27T11:16:08.558Z,18.97
2018-11-27T11:20:11.520Z,20.37
2018-11-27T11:24:13.938Z,22.17
2018-11-27T11:28:17.888Z,21.00
2018-11-27T11:32:20.411Z,18.87
2018-11-27T11:36:22.784Z,20.07
2018-11-27T11:40:25.534Z,24.17
2018-11-27T11:44:28.014Z,22.27
2018-11-27T11:48:30.379Z,21.37
2018-11-27T11:52:34.639Z,24.00
2018-11-27T11:56:35.165Z,23.40
2018-11-27T12:00:41.284Z,22.00
2018-11-27T12:04:43.689Z,25.67
2018-11-27T12:08:46.031Z,24.67
2018-11-27T12:12:48.407Z,23.33
2018-11-27T12:16:50.798Z,23.27
2018-11-27T12:20:53.186Z,21.43
2018-11-27T12:24:55.670Z,22.00
2018-11-27T12:28:57.994Z,20.63
2018-11-27T12:33:00.369Z,22.57
2018-11-27T12:37:03.780Z,20.63
2018-11-27T12:41:10.179Z,22.63
2018-11-27T12:45:12.710Z,21.07
2018-11-27T12:49:15.158Z,22.33
2018-11-27T12:53:18.251Z,22.53
2018-11-27T12:57:20.610Z,22.93
2018-11-27T13:01:23.002Z,21.30
2018-11-27T13:05:26.782Z,22.77
2018-11-27T13:09:29.198Z,21.57
2018-11-27T13:18:17.650Z,22.40
2018-11-27T13:22:20.005Z,23.53
2018-11-27T13:26:22.347Z,22.80
2018-11-27T13:30:46.042Z,22.77
2018-11-27T13:34:52.539Z,20.17
2018-11-27T13:38:50.758Z,21.63
2018-11-27T13:42:53.122Z,21.57
2018-11-27T13:46:55.484Z,21.53
2018-11-27T13:50:57.832Z,22.77
2018-11-27T13:55:00.363Z,23.03
2018-11-27T13:59:02.782Z,23.90
2018-11-27T14:03:10.649Z,23.40
2018-11-27T14:07:07.900Z,21.27
2018-11-27T14:11:10.404Z,21.37
2018-11-27T14:15:17.917Z,21.03
2018-11-27T14:19:20.352Z,24.03
2018-11-27T14:23:22.797Z,22.30
2018-11-27T14:27:25.198Z,21.93
2018-11-27T14:31:27.629Z,23.13
2018-11-27T14:35:30.042Z,23.40
2018-11-27T14:39:32.391Z,21.37
2018-11-27T14:43:34.760Z,21.67
2018-11-27T14:47:37.112Z,22.80
2018-11-27T14:51:39.510Z,21.30
2018-11-27T14:55:41.896Z,25.77
2018-11-27T14:59:44.288Z,22.77
2018-11-27T15:03:46.679Z,23.03
2018-11-27T15:07:49.228Z,24.60
2018-11-27T15:11:51.586Z,21.70
2018-11-27T15:15:54.128Z,22.17
2018-11-27T15:19:56.453Z,20.90
2018-11-27T15:23:58.823Z,20.80
2018-11-27T15:28:01.224Z,22.67
2018-11-27T15:32:03.686Z,22.90
2018-11-27T15:36:06.166Z,22.67
2018-11-27T15:40:13.908Z,22.77
2018-11-27T15:44:17.197Z,24.27
2018-11-27T15:48:19.562Z,22.33
2018-11-27T15:52:21.897Z,23.73
2018-11-27T15:56:24.257Z,22.47
2018-11-27T16:00:26.704Z,21.40
2018-11-27T16:04:29.076Z,20.90
2018-11-27T16:08:31.476Z,19.23
2018-11-27T16:12:33.847Z,21.27
2018-11-27T16:16:36.291Z,19.17
2018-11-27T16:20:39.843Z,23.27
2018-11-27T16:24:43.984Z,22.73
2018-11-27T16:28:46.309Z,22.93
2018-11-27T16:32:48.705Z,23.13
2018-11-27T16:36:51.301Z,21.47
2018-11-27T16:40:53.800Z,21.37
2018-11-27T16:44:56.161Z,21.03
2018-11-27T16:48:58.487Z,21.60
2018-11-27T16:53:00.871Z,21.60
2018-11-27T16:57:03.371Z,21.87
2018-11-27T17:01:09.088Z,22.00
2018-11-27T17:05:08.658Z,18.83
2018-11-27T17:09:11.084Z,21.20
2018-11-27T17:13:14.573Z,20.83
2018-11-27T17:17:16.866Z,21.23
2018-11-27T17:21:19.182Z,20.33
2018-11-27T17:25:21.580Z,22.10
2018-11-27T17:29:23.991Z,21.43
2018-11-27T17:33:35.793Z,19.97
2018-11-27T17:37:38.233Z,23.40
2018-11-27T17:41:40.688Z,23.77
2018-11-27T17:45:43.108Z,26.30
2018-11-27T17:49:45.591Z,23.23
2018-11-27T17:53:47.958Z,22.93
2018-11-27T17:57:50.882Z,23.80
2018-11-27T18:01:53.289Z,22.67
2018-11-27T18:05:55.691Z,25.43
2018-11-27T18:09:59.066Z,21.63
2018-11-27T18:14:01.384Z,23.63
2018-11-27T18:18:05.112Z,22.70
2018-11-27T18:22:07.833Z,38.77
2018-11-27T18:26:10.785Z,23.70
2018-11-27T18:30:19.609Z,24.97
2018-11-27T18:34:22.138Z,25.37
2018-11-27T18:38:24.720Z,26.02
2018-11-27T18:42:27.226Z,26.60
2018-11-27T18:46:29.796Z,26.90
2018-11-27T18:50:34.460Z,26.83
2018-11-27T18:54:37.198Z,24.40
2018-11-27T18:58:39.830Z,27.47
2018-11-27T19:02:42.330Z,25.67
2018-11-27T19:06:44.923Z,27.47
2018-11-27T19:10:47.381Z,26.97
2018-11-27T19:14:49.783Z,28.37
2018-11-27T19:18:52.262Z,26.43
2018-11-27T19:22:54.606Z,24.37
2018-11-27T19:26:57.041Z,25.97
2018-11-27T19:30:59.448Z,29.83
2018-11-27T19:35:01.886Z,28.20
2018-11-27T19:39:07.027Z,26.83
2018-11-27T19:43:09.384Z,27.30
2018-11-27T19:47:11.802Z,27.10
2018-11-27T19:51:16.394Z,27.00
2018-11-27T19:55:19.615Z,28.93
2018-11-27T19:59:22.115Z,31.27
2018-11-27T20:03:24.620Z,30.77
2018-11-27T20:07:27.067Z,27.13
2018-11-27T20:15:39.464Z,26.57
2018-11-27T20:19:48.500Z,29.17
2018-11-27T20:23:50.886Z,31.52
2018-11-27T20:27:53.449Z,26.60
2018-11-27T20:31:56.626Z,26.13
2018-11-27T20:35:59.587Z,22.43
2018-11-27T20:40:02.009Z,27.50
2018-11-27T20:44:05.262Z,26.73
2018-11-27T20:48:22.641Z,27.90
2018-11-27T20:52:26.443Z,29.10
2018-11-27T20:56:28.893Z,27.80
2018-11-27T21:00:37.944Z,28.90
2018-11-27T21:04:40.451Z,27.10
2018-11-27T21:08:42.875Z,28.77
2018-11-27T21:12:48.094Z,28.50
2018-11-27T21:16:50.610Z,24.97
2018-11-27T21:20:53.012Z,26.43
2018-11-27T21:24:55.380Z,24.83
2018-11-27T21:28:58.643Z,26.27
2018-11-27T21:33:00.989Z,27.77
2018-11-27T21:37:03.409Z,25.13
2018-11-27T21:41:06.210Z,42.20
2018-11-27T21:45:10.866Z,24.03
2018-11-27T21:49:13.256Z,24.80
2018-11-27T21:53:16.524Z,24.87
2018-11-27T21:57:18.967Z,25.87
2018-11-27T22:01:21.362Z,32.07
2018-11-27T22:05:24.649Z,25.80
2018-11-27T22:09:27.114Z,25.83
2018-11-27T22:13:29.579Z,25.60
2018-11-27T22:17:31.913Z,29.20
2018-11-27T22:21:34.279Z,26.53
2018-11-27T22:25:37.528Z,24.77
2018-11-27T22:29:39.902Z,27.83
2018-11-27T22:33:42.309Z,26.37
2018-11-27T22:37:46.370Z,29.03
2018-11-27T22:41:48.719Z,29.90
2018-11-27T22:45:51.189Z,30.87
2018-11-27T22:49:53.701Z,27.70
2018-11-27T22:53:56.198Z,32.43
2018-11-27T22:57:59.447Z,30.90
2018-11-27T23:02:01.847Z,30.33
2018-11-27T23:06:06.219Z,27.83
2018-11-27T23:10:09.287Z,28.20
2018-11-27T23:14:12.109Z,30.07
2018-11-27T23:18:14.689Z,30.47
2018-11-27T23:22:18.352Z,30.57
2018-11-27T23:26:20.909Z,29.07
2018-11-27T23:30:24.543Z,31.20
2018-11-27T23:34:26.977Z,31.40
2018-11-27T23:38:29.378Z,30.40
2018-11-27T23:42:31.785Z,29.70
2018-11-27T23:46:34.144Z,32.40
2018-11-27T23:50:36.517Z,28.83
2018-11-27T23:54:38.888Z,28.37
2018-11-27T23:58:41.262Z,31.10
